Time;durP1;ratioP1;P1;durP2;ratioP2;P2;SDS_P1;SDS_P2;PMS_P1;PMS_P2;Temp;Humidity;BMP_temperature;BMP_pressure;BME280_temperature;BME280_humidity;BME280_pressure;Samples;Min_cycle;Max_cycle;Signal;HPM_P1;HPM_P2
2022/08/09 00:00:59;;;;;;;;;;;;;;;18.90;41.98;99523.81;2618259;54;19939;-68
2022/08/09 00:03:29;;;;;;;;;;;;;;;18.88;42.19;99522.41;2618301;54;20431;-67
2022/08/09 00:06:18;;;;;;;;;;;;;;;18.79;42.11;99522.72;2618254;54;19958;-66
2022/08/09 00:08:51;;;;;;;;;;;;;;;18.70;42.36;99525.97;2618311;54;19962;-68
2022/08/09 00:11:28;;;;;;;;;;;;;;;18.62;42.81;99524.38;2618247;54;20414;-67
2022/08/09 00:14:18;;;;;;;;;;;;;;;18.57;42.79;99524.22;2618418;54;20026;-68
2022/08/09 00:17:06;;;;;;;;;;;;;;;18.58;42.87;99517.03;2618096;54;19938;-68
2022/08/09 00:19:36;;;;;;;;;;;;;;;18.62;42.77;99516.34;2618071;54;19950;-68
2022/08/09 00:22:08;;;;;;;;;;;;;;;18.62;42.62;99518.22;2618623;39;20366;-68
2022/08/09 00:24:39;;;;;;;;;;;;;;;18.33;43.43;99520.66;2617977;54;19946;-67
2022/08/09 00:27:11;;;;;;;;;;;;;;;18.29;43.00;99511.44;2618246;39;20386;-68
2022/08/09 00:29:40;;;;;;;;;;;;;;;18.27;43.43;99513.50;2617444;54;19954;-68
2022/08/09 00:32:30;;;;;;;;;;;;;;;18.29;43.49;99506.09;2618159;54;20026;-68
2022/08/09 00:34:59;;;;;;;;;;;;;;;18.37;43.74;99508.47;2617808;54;19947;-68
2022/08/09 00:37:29;;;;;;;;;;;;;;;18.40;43.77;99513.34;2617745;54;19951;-69
2022/08/09 00:40:01;;;;;;;;;;;;;;;18.34;43.86;99508.09;2618396;39;20334;-69
2022/08/09 00:42:46;;;;;;;;;;;;;;;18.28;44.12;99507.09;2617815;54;20498;-68
2022/08/09 00:45:36;;;;;;;;;;;;;;;18.06;44.20;99499.56;2617988;54;20059;-68
2022/08/09 00:48:18;;;;;;;;;;;;;;;18.12;44.33;99500.50;2617477;54;19961;-68
2022/08/09 00:50:47;;;;;;;;;;;;;;;18.14;44.04;99498.44;2617909;54;19947;-68
2022/08/09 00:53:20;;;;;;;;;;;;;;;18.13;43.99;99496.00;2618944;54;19939;-68
2022/08/09 00:55:52;;;;;;;;;;;;;;;17.99;44.22;99501.50;2619042;54;19938;-68
2022/08/09 00:58:37;;;;;;;;;;;;;;;17.92;44.82;99503.44;2617942;54;19947;-68
2022/08/09 01:01:10;;;;;;;;;;;;;;;17.90;45.08;99499.34;2617913;54;20471;-68
2022/08/09 01:03:49;;;;;;;;;;;;;;;17.86;45.22;99504.31;2617770;54;19953;-68
2022/08/09 01:06:28;;;;;;;;;;;;;;;17.83;45.04;99507.44;2617766;54;20438;-69
2022/08/09 01:09:22;;;;;;;;;;;;;;;17.75;45.47;99505.88;2617999;54;19947;-68
2022/08/09 01:11:56;;;;;;;;;;;;;;;17.67;45.70;99514.16;2618251;54;20331;-68
2022/08/09 01:14:30;;;;;;;;;;;;;;;17.54;45.66;99511.63;2617322;51;19942;-67
2022/08/09 01:17:03;;;;;;;;;;;;;;;17.52;45.72;99508.34;2617799;54;19946;-66
2022/08/09 01:19:45;;;;;;;;;;;;;;;17.53;46.07;99509.97;2617779;54;19947;-67
2022/08/09 01:22:53;;;;;;;;;;;;;;;17.57;45.80;99501.31;2618016;39;20331;-67
2022/08/09 01:25:28;;;;;;;;;;;;;;;17.56;45.98;99502.34;2617338;47;19957;-67
2022/08/09 01:28:02;;;;;;;;;;;;;;;17.56;45.53;99515.72;2617676;54;19994;-67
2022/08/09 01:30:34;;;;;;;;;;;;;;;17.38;46.42;99512.19;2618302;39;20447;-66
2022/08/09 01:33:23;;;;;;;;;;;;;;;17.27;47.00;99513.72;2617201;47;19953;-66
2022/08/09 01:35:54;;;;;;;;;;;;;;;17.31;46.65;99513.06;2617643;54;19953;-67
2022/08/09 01:38:28;;;;;;;;;;;;;;;17.46;46.37;99517.25;2618568;39;20350;-67
2022/08/09 01:41:01;;;;;;;;;;;;;;;17.45;46.60;99515.63;2617959;54;20442;-68
2022/08/09 01:43:37;;;;;;;;;;;;;;;17.46;46.91;99518.06;2618341;54;19939;-67
2022/08/09 01:46:20;;;;;;;;;;;;;;;17.42;46.61;99516.84;2618124;54;20043;-67
2022/08/09 01:48:56;;;;;;;;;;;;;;;17.34;46.94;99509.94;2618353;54;19950;-69
2022/08/09 01:51:29;;;;;;;;;;;;;;;17.34;46.97;99511.78;2618271;47;19951;-67
2022/08/09 01:54:02;;;;;;;;;;;;;;;17.25;47.34;99521.13;2619091;54;20294;-68
2022/08/09 01:56:33;;;;;;;;;;;;;;;17.24;47.35;99511.47;2617581;54;19969;-67
2022/08/09 01:59:09;;;;;;;;;;;;;;;17.25;47.63;99519.28;2619084;54;20021;-67
2022/08/09 02:01:45;;;;;;;;;;;;;;;17.24;47.71;99522.97;2618798;47;19947;-67
2022/08/09 02:04:29;;;;;;;;;;;;;;;17.22;47.27;99519.69;2619492;54;20438;-67
2022/08/09 02:10:05;;;;;;;;;;;;;;;17.14;47.99;99529.84;2619161;54;20043;-67
2022/08/09 02:12:36;;;;;;;;;;;;;;;17.09;48.22;99533.97;2619455;54;19939;-67
2022/08/09 02:15:11;;;;;;;;;;;;;;;17.14;47.97;99527.97;2619468;54;19946;-67
2022/08/09 02:17:49;;;;;;;;;;;;;;;17.15;47.50;99528.84;2620002;54;19953;-67
2022/08/09 02:20:41;;;;;;;;;;;;;;;17.13;47.36;99525.53;2619290;46;19954;-67
2022/08/09 02:23:13;;;;;;;;;;;;;;;17.04;47.68;99538.34;2620024;54;19949;-67
2022/08/09 02:25:46;;;;;;;;;;;;;;;16.95;48.20;99534.31;2618931;54;19945;-68
2022/08/09 02:28:23;;;;;;;;;;;;;;;16.88;48.03;99544.22;2619079;54;19946;-67
2022/08/09 02:31:01;;;;;;;;;;;;;;;16.89;48.48;99538.66;2623915;54;19945;-67
2022/08/09 02:33:36;;;;;;;;;;;;;;;16.88;48.35;99539.69;2624288;54;20430;-67
2022/08/09 02:36:36;;;;;;;;;;;;;;;16.89;48.00;99543.16;2623908;54;19962;-67
2022/08/09 02:39:07;;;;;;;;;;;;;;;16.81;48.18;99539.72;2623862;54;19939;-67
2022/08/09 02:41:59;;;;;;;;;;;;;;;16.78;48.45;99540.16;2623323;54;19954;-67
2022/08/09 02:44:35;;;;;;;;;;;;;;;16.69;48.94;99543.25;2622078;54;19977;-67
2022/08/09 02:47:09;;;;;;;;;;;;;;;16.61;49.20;99549.66;2618337;54;19946;-67
2022/08/09 02:49:43;;;;;;;;;;;;;;;16.57;49.12;99546.63;2618441;54;19939;-67
2022/08/09 02:52:15;;;;;;;;;;;;;;;16.49;48.84;99543.34;2618432;54;20475;-66
2022/08/09 02:54:45;;;;;;;;;;;;;;;16.44;49.46;99544.00;2618393;39;20345;-67
2022/08/09 02:57:23;;;;;;;;;;;;;;;16.43;49.16;99537.03;2618674;39;20483;-67
2022/08/09 02:59:54;;;;;;;;;;;;;;;16.51;49.51;99539.47;2617808;54;19963;-67
2022/08/09 03:02:49;;;;;;;;;;;;;;;16.53;48.84;99533.91;2618513;54;20061;-67
2022/08/09 03:05:29;;;;;;;;;;;;;;;16.63;49.20;99528.13;2618272;54;19939;-67
2022/08/09 03:08:04;;;;;;;;;;;;;;;16.62;48.68;99527.31;2618253;54;19938;-67
2022/08/09 03:10:35;;;;;;;;;;;;;;;16.65;48.73;99528.69;2618214;54;19946;-67
2022/08/09 03:13:06;;;;;;;;;;;;;;;16.57;48.43;99524.44;2618840;39;20103;-67
2022/08/09 03:15:39;;;;;;;;;;;;;;;16.45;48.65;99518.97;2617801;54;20034;-67
2022/08/09 03:18:31;;;;;;;;;;;;;;;16.39;49.20;99522.47;2618294;54;20038;-67
2022/08/09 03:21:02;;;;;;;;;;;;;;;16.34;49.05;99527.63;2619103;39;20367;-66
2022/08/09 03:23:32;;;;;;;;;;;;;;;16.25;49.60;99526.25;2618722;54;19947;-66
2022/08/09 03:26:01;;;;;;;;;;;;;;;16.24;49.75;99519.25;2617701;54;20470;-66
2022/08/09 03:28:34;;;;;;;;;;;;;;;16.28;49.31;99518.63;2618636;39;20436;-66
2022/08/09 03:31:03;;;;;;;;;;;;;;;16.28;49.67;99521.28;2618548;54;20427;-66
2022/08/09 03:33:52;;;;;;;;;;;;;;;16.25;49.60;99520.91;2618680;54;19946;-67
2022/08/09 03:36:26;;;;;;;;;;;;;;;16.15;49.63;99518.69;2617742;54;19951;-67
2022/08/09 03:38:56;;;;;;;;;;;;;;;16.18;49.67;99522.78;2618690;54;19958;-68
2022/08/09 03:41:26;;;;;;;;;;;;;;;16.15;49.79;99533.88;2618641;54;19946;-68
2022/08/09 03:44:13;;;;;;;;;;;;;;;16.16;50.14;99535.50;2618506;54;19954;-66
2022/08/09 03:46:43;;;;;;;;;;;;;;;16.27;50.34;99541.00;2618684;54;19983;-66
2022/08/09 03:49:17;;;;;;;;;;;;;;;16.34;50.18;99540.97;2618761;54;19946;-66
2022/08/09 03:51:54;;;;;;;;;;;;;;;16.33;49.91;99545.50;2617929;54;19942;-66
2022/08/09 03:54:31;;;;;;;;;;;;;;;16.36;50.22;99541.56;2618655;54;19939;-66
2022/08/09 03:57:03;;;;;;;;;;;;;;;16.49;49.70;99551.38;2618505;54;19938;-66
2022/08/09 03:59:49;;;;;;;;;;;;;;;16.44;49.66;99553.84;2619017;54;20063;-67
2022/08/09 04:02:25;;;;;;;;;;;;;;;16.42;50.05;99556.75;2598552;54;19939;-68
2022/08/09 04:05:00;;;;;;;;;;;;;;;16.40;50.13;99553.47;2618039;54;19946;-67
2022/08/09 04:07:35;;;;;;;;;;;;;;;16.39;49.99;99557.16;2617315;54;20090;-68
2022/08/09 04:10:24;;;;;;;;;;;;;;;16.29;49.87;99554.97;2618698;39;20448;-68
2022/08/09 04:12:57;;;;;;;;;;;;;;;16.24;50.38;99556.59;2618922;54;19946;-67
2022/08/09 04:15:32;;;;;;;;;;;;;;;16.14;50.29;99558.91;2621116;54;19953;-65
2022/08/09 04:18:21;;;;;;;;;;;;;;;16.13;50.58;99567.94;2622296;47;19939;-65
2022/08/09 04:20:55;;;;;;;;;;;;;;;16.10;50.87;99572.66;2622226;54;19938;-65
2022/08/09 04:23:25;;;;;;;;;;;;;;;16.06;51.23;99568.78;2621270;54;19938;-66
2022/08/09 04:25:55;;;;;;;;;;;;;;;15.96;51.32;99570.22;2622182;54;19939;-65
2022/08/09 04:28:25;;;;;;;;;;;;;;;15.83;51.33;99569.22;2621823;47;19953;-65
2022/08/09 04:31:05;;;;;;;;;;;;;;;15.77;51.79;99575.41;2622396;54;20446;-66
2022/08/09 04:33:39;;;;;;;;;;;;;;;15.70;51.57;99566.59;2622072;54;19947;-65
2022/08/09 04:36:26;;;;;;;;;;;;;;;15.72;52.18;99571.72;2622932;31;20347;-63
2022/08/09 04:38:56;;;;;;;;;;;;;;;15.81;51.47;99567.81;2620368;47;19955;-63
2022/08/09 04:41:28;;;;;;;;;;;;;;;15.88;51.29;99568.63;2621187;54;20498;-63
2022/08/09 04:44:02;;;;;;;;;;;;;;;15.92;51.19;99572.50;2621320;54;19945;-64
2022/08/09 04:46:37;;;;;;;;;;;;;;;15.94;51.17;99577.63;2619863;54;19989;-64
2022/08/09 04:49:31;;;;;;;;;;;;;;;15.92;51.55;99580.50;2620725;54;19977;-64
2022/08/09 04:52:24;;;;;;;;;;;;;;;16.04;50.84;99584.19;2620090;54;19946;-67
2022/08/09 04:54:55;;;;;;;;;;;;;;;16.15;50.75;99590.69;2619562;54;20451;-63
2022/08/09 04:57:25;;;;;;;;;;;;;;;16.19;50.93;99588.44;2619765;54;19970;-65
2022/08/09 04:59:55;;;;;;;;;;;;;;;16.25;50.64;99588.44;2619573;54;19942;-63
2022/08/09 05:02:25;;;;;;;;;;;;;;;16.33;50.59;99590.03;2620184;54;19953;-64
2022/08/09 05:04:55;;;;;;;;;;;;;;;16.33;49.92;99598.06;2621314;54;20487;-65
2022/08/09 05:07:29;;;;;;;;;;;;;;;16.27;50.15;99605.03;2621830;54;19990;-65
2022/08/09 05:10:00;;;;;;;;;;;;;;;16.12;50.21;99608.97;2621559;54;20051;-65
2022/08/09 05:12:31;;;;;;;;;;;;;;;16.05;50.88;99603.66;2621194;54;19939;-66
2022/08/09 05:15:02;;;;;;;;;;;;;;;16.12;50.66;99611.63;2621500;54;19950;-66
2022/08/09 05:17:40;;;;;;;;;;;;;;;16.33;50.35;99616.72;2621097;54;19947;-65
2022/08/09 05:20:30;;;;;;;;;;;;;;;16.41;50.48;99608.50;2621087;54;19977;-64
2022/08/09 05:23:05;;;;;;;;;;;;;;;16.46;50.32;99599.84;2620947;54;19945;-64
2022/08/09 05:25:55;;;;;;;;;;;;;;;16.59;50.42;99600.59;2620435;54;19942;-64
2022/08/09 05:28:25;;;;;;;;;;;;;;;16.78;49.93;99608.78;2620340;47;19945;-63
2022/08/09 05:30:54;;;;;;;;;;;;;;;16.89;49.45;99607.25;2620837;54;19957;-64
2022/08/09 05:33:24;;;;;;;;;;;;;;;17.01;48.70;99606.38;2619617;54;19957;-66
2022/08/09 05:36:02;;;;;;;;;;;;;;;17.00;49.24;99611.94;2620001;54;19969;-63
2022/08/09 05:38:37;;;;;;;;;;;;;;;17.01;49.10;99614.38;2619666;54;19945;-63
2022/08/09 05:41:07;;;;;;;;;;;;;;;17.13;48.73;99609.16;2619937;54;19962;-64
2022/08/09 05:43:41;;;;;;;;;;;;;;;17.25;48.55;99615.47;2620599;54;19947;-64
2022/08/09 05:46:14;;;;;;;;;;;;;;;17.37;48.52;99604.91;2619810;54;19973;-63
2022/08/09 05:48:43;;;;;;;;;;;;;;;17.44;47.88;99607.53;2619806;54;19942;-64
2022/08/09 05:51:25;;;;;;;;;;;;;;;17.41;48.47;99607.97;2620249;39;20092;-64
2022/08/09 05:54:14;;;;;;;;;;;;;;;17.51;48.21;99610.94;2619210;54;19959;-64
2022/08/09 05:56:46;;;;;;;;;;;;;;;17.64;48.04;99616.22;2619279;47;20419;-64
2022/08/09 05:59:23;;;;;;;;;;;;;;;17.82;48.25;99615.47;2620722;54;19986;-64
2022/08/09 06:01:54;;;;;;;;;;;;;;;17.99;47.78;99613.03;2622472;54;19939;-66
2022/08/09 06:04:27;;;;;;;;;;;;;;;18.13;47.58;99619.09;2622159;47;19990;-65
2022/08/09 06:07:03;;;;;;;;;;;;;;;18.23;47.00;99620.19;2621916;51;20002;-66
2022/08/09 06:09:36;;;;;;;;;;;;;;;18.28;47.34;99622.19;2622408;47;19962;-67
2022/08/09 06:12:23;;;;;;;;;;;;;;;18.41;46.73;99627.41;2622059;54;20073;-66
2022/08/09 06:15:01;;;;;;;;;;;;;;;18.56;46.80;99625.16;2622547;54;19951;-65
2022/08/09 06:17:38;;;;;;;;;;;;;;;18.66;46.14;99629.19;2622349;54;19969;-67
2022/08/09 06:20:09;;;;;;;;;;;;;;;18.81;46.55;99624.25;2620717;39;20357;-64
2022/08/09 06:22:39;;;;;;;;;;;;;;;18.94;45.81;99625.94;2621281;54;19939;-67
2022/08/09 06:25:16;;;;;;;;;;;;;;;19.07;45.49;99631.16;2620421;54;19950;-66
2022/08/09 06:27:49;;;;;;;;;;;;;;;19.21;45.41;99624.53;2620589;54;19986;-66
2022/08/09 06:30:20;;;;;;;;;;;;;;;19.39;44.97;99630.88;2622219;54;19958;-67
2022/08/09 06:32:50;;;;;;;;;;;;;;;19.47;44.36;99633.22;2621913;54;19951;-67
2022/08/09 06:35:40;;;;;;;;;;;;;;;19.55;44.58;99631.03;2621696;54;19969;-66
2022/08/09 06:38:26;;;;;;;;;;;;;;;19.61;43.94;99642.72;2621977;54;19947;-67
2022/08/09 06:41:08;;;;;;;;;;;;;;;19.73;44.16;99637.38;2622353;54;19961;-67
2022/08/09 06:43:48;;;;;;;;;;;;;;;19.87;44.01;99640.66;2621970;39;20001;-66
2022/08/09 06:46:21;;;;;;;;;;;;;;;20.02;43.72;99646.38;2623390;54;19938;-68
2022/08/09 06:49:09;;;;;;;;;;;;;;;20.08;43.34;99647.28;2624128;31;20399;-66
2022/08/09 06:51:40;;;;;;;;;;;;;;;20.19;43.32;99649.16;2622333;54;19938;-67
2022/08/09 06:54:11;;;;;;;;;;;;;;;20.29;42.75;99644.03;2622546;54;19945;-67
2022/08/09 06:56:45;;;;;;;;;;;;;;;20.37;42.42;99648.19;2622316;54;19997;-67
2022/08/09 06:59:15;;;;;;;;;;;;;;;20.47;42.09;99645.75;2622759;54;20033;-67
2022/08/09 07:02:04;;;;;;;;;;;;;;;20.64;42.20;99643.97;2622225;47;19998;-65
2022/08/09 07:04:34;;;;;;;;;;;;;;;20.76;41.57;99647.44;2622752;54;20449;-65
2022/08/09 07:07:04;;;;;;;;;;;;;;;20.84;41.49;99646.25;2622181;54;19938;-65
2022/08/09 07:09:40;;;;;;;;;;;;;;;20.93;41.53;99644.81;2622294;54;19938;-65
2022/08/09 07:12:30;;;;;;;;;;;;;;;20.99;41.23;99638.50;2621818;54;19954;-65
2022/08/09 07:15:09;;;;;;;;;;;;;;;21.10;40.78;99641.34;2621365;47;19947;-65
2022/08/09 07:17:59;;;;;;;;;;;;;;;21.31;40.31;99643.38;2621118;47;19974;-65
2022/08/09 07:20:31;;;;;;;;;;;;;;;21.50;39.76;99642.09;2621500;54;19951;-64
2022/08/09 07:23:00;;;;;;;;;;;;;;;21.69;39.31;99636.50;2621559;54;19945;-64
2022/08/09 07:25:46;;;;;;;;;;;;;;;21.92;38.34;99643.56;2621532;54;19947;-64
2022/08/09 07:28:22;;;;;;;;;;;;;;;22.03;37.51;99642.66;2621054;54;19946;-64
2022/08/09 07:30:56;;;;;;;;;;;;;;;22.08;37.73;99639.22;2620793;54;20411;-64
2022/08/09 07:33:26;;;;;;;;;;;;;;;22.26;37.33;99641.69;2618690;54;19957;-64
2022/08/09 07:36:16;;;;;;;;;;;;;;;22.36;36.92;99639.09;2619359;54;19969;-63
2022/08/09 07:38:46;;;;;;;;;;;;;;;22.41;37.20;99644.56;2619355;54;19975;-65
2022/08/09 07:41:26;;;;;;;;;;;;;;;22.53;37.21;99643.63;2621298;54;19946;-67
2022/08/09 07:44:09;;;;;;;;;;;;;;;22.63;36.70;99643.75;2621036;54;19993;-67
2022/08/09 07:46:40;;;;;;;;;;;;;;;22.72;36.50;99645.75;2621412;54;19950;-67
2022/08/09 07:49:11;;;;;;;;;;;;;;;22.85;36.17;99641.03;2621272;54;19942;-67
2022/08/09 07:51:43;;;;;;;;;;;;;;;23.03;36.17;99640.75;2621300;48;20441;-67
2022/08/09 07:54:33;;;;;;;;;;;;;;;23.02;36.01;99646.38;2622409;54;19946;-67
2022/08/09 07:57:02;;;;;;;;;;;;;;;23.08;36.32;99639.97;2621478;54;20014;-66
2022/08/09 07:59:42;;;;;;;;;;;;;;;23.20;35.76;99637.94;2622204;54;19963;-68
2022/08/09 08:02:40;;;;;;;;;;;;;;;23.13;35.43;99635.44;2622408;39;20046;-69
2022/08/09 08:05:11;;;;;;;;;;;;;;;23.15;35.73;99636.03;2619540;54;19947;-65
2022/08/09 08:07:47;;;;;;;;;;;;;;;23.24;35.55;99639.06;2618714;54;20034;-66
2022/08/09 08:10:36;;;;;;;;;;;;;;;23.38;35.51;99639.44;2618799;54;20496;-66
2022/08/09 08:13:16;;;;;;;;;;;;;;;23.41;35.29;99638.94;2624240;54;19946;-67
2022/08/09 08:15:50;;;;;;;;;;;;;;;23.53;35.64;99645.00;2624772;54;19945;-65
2022/08/09 08:18:20;;;;;;;;;;;;;;;23.67;34.73;99643.50;2623366;54;19946;-66
2022/08/09 08:20:50;;;;;;;;;;;;;;;23.78;34.94;99635.50;2623477;54;19938;-64
2022/08/09 08:23:19;;;;;;;;;;;;;;;23.81;34.75;99643.09;2623174;54;19946;-65
2022/08/09 08:25:55;;;;;;;;;;;;;;;23.81;35.01;99640.38;2622262;54;19946;-65
2022/08/09 08:28:39;;;;;;;;;;;;;;;23.86;34.45;99643.13;2618110;47;20062;-65
2022/08/09 08:31:11;;;;;;;;;;;;;;;24.00;34.01;99646.16;2618066;46;19939;-65
2022/08/09 08:33:44;;;;;;;;;;;;;;;24.08;34.30;99645.69;2618463;54;19955;-66
2022/08/09 08:36:23;;;;;;;;;;;;;;;24.17;33.90;99644.13;2618067;47;19946;-66
2022/08/09 08:38:58;;;;;;;;;;;;;;;24.32;33.56;99637.97;2618692;54;20450;-64
2022/08/09 08:41:29;;;;;;;;;;;;;;;24.40;33.04;99640.22;2618663;54;19947;-63
2022/08/09 08:44:19;;;;;;;;;;;;;;;24.49;33.19;99643.22;2617970;54;19950;-63
2022/08/09 08:46:59;;;;;;;;;;;;;;;24.52;33.26;99645.41;2618515;54;19946;-64
2022/08/09 08:49:41;;;;;;;;;;;;;;;24.58;33.25;99644.38;2618635;54;19947;-64
2022/08/09 08:52:17;;;;;;;;;;;;;;;24.78;32.92;99640.91;2619215;54;19943;-64
2022/08/09 08:55:07;;;;;;;;;;;;;;;24.92;32.48;99642.03;2618501;54;19958;-65
2022/08/09 08:57:37;;;;;;;;;;;;;;;24.96;32.39;99646.66;2617784;54;19954;-64
2022/08/09 09:00:09;;;;;;;;;;;;;;;24.96;32.84;99637.72;2618518;54;19980;-64
2022/08/09 09:02:53;;;;;;;;;;;;;;;25.15;32.25;99638.06;2618440;54;20050;-64
2022/08/09 09:05:25;;;;;;;;;;;;;;;25.29;31.57;99625.63;2618225;54;19946;-65
2022/08/09 09:08:15;;;;;;;;;;;;;;;25.38;31.86;99631.31;2619678;54;19953;-65
2022/08/09 09:11:02;;;;;;;;;;;;;;;25.45;31.79;99632.69;2619726;54;19946;-65
2022/08/09 09:13:32;;;;;;;;;;;;;;;25.52;31.02;99634.31;2618910;54;19945;-65
2022/08/09 09:16:22;;;;;;;;;;;;;;;25.52;31.29;99637.84;2619339;54;19967;-65
2022/08/09 09:19:02;;;;;;;;;;;;;;;25.43;31.67;99634.03;2619388;54;19946;-65
2022/08/09 09:21:59;;;;;;;;;;;;;;;25.42;31.93;99630.50;2618631;54;19958;-65
2022/08/09 09:24:29;;;;;;;;;;;;;;;25.63;31.76;99634.03;2618458;54;19982;-65
2022/08/09 09:27:01;;;;;;;;;;;;;;;25.86;31.02;99629.16;2618472;54;19950;-65
2022/08/09 09:29:32;;;;;;;;;;;;;;;25.83;31.42;99632.41;2619197;54;19953;-65
2022/08/09 09:32:22;;;;;;;;;;;;;;;25.88;31.11;99629.69;2618397;54;19953;-66
2022/08/09 09:35:10;;;;;;;;;;;;;;;25.82;31.37;99618.06;2619676;39;20393;-65
2022/08/09 09:37:47;;;;;;;;;;;;;;;25.94;31.53;99617.78;2619623;54;19946;-67
2022/08/09 09:40:16;;;;;;;;;;;;;;;26.16;31.35;99617.44;2622454;54;19945;-67
2022/08/09 09:42:56;;;;;;;;;;;;;;;26.40;30.34;99623.88;2621558;54;19958;-67
2022/08/09 09:45:25;;;;;;;;;;;;;;;26.43;30.57;99615.19;2621606;54;19950;-67
2022/08/09 09:48:04;;;;;;;;;;;;;;;26.25;31.06;99614.97;2621671;54;19950;-65
2022/08/09 09:50:46;;;;;;;;;;;;;;;26.30;31.17;99617.69;2624441;39;20337;-65
2022/08/09 09:53:21;;;;;;;;;;;;;;;26.57;30.47;99609.19;2622321;54;19945;-66
2022/08/09 09:56:11;;;;;;;;;;;;;;;26.62;30.83;99610.00;2621926;47;19946;-66
2022/08/09 09:59:00;;;;;;;;;;;;;;;26.73;30.51;99608.03;2621516;54;19962;-66
2022/08/09 10:01:30;;;;;;;;;;;;;;;26.98;29.98;99598.13;2622191;54;19977;-66
2022/08/09 10:04:15;;;;;;;;;;;;;;;27.02;29.88;99610.03;2619734;54;19997;-64
2022/08/09 10:07:02;;;;;;;;;;;;;;;27.22;29.92;99600.97;2618036;54;19943;-65
2022/08/09 10:09:48;;;;;;;;;;;;;;;27.18;29.87;99606.16;2618217;47;19950;-67
2022/08/09 10:12:27;;;;;;;;;;;;;;;27.24;29.66;99598.81;2617701;54;19947;-63
2022/08/09 10:15:10;;;;;;;;;;;;;;;27.40;29.40;99594.88;2617879;54;19967;-67
2022/08/09 10:18:11;;;;;;;;;;;;;;;27.52;30.04;99595.31;2617817;54;19977;-70
2022/08/09 10:20:41;;;;;;;;;;;;;;;27.63;29.22;99593.28;2618233;39;20339;-67
2022/08/09 10:23:21;;;;;;;;;;;;;;;27.76;28.89;99589.97;2618560;54;19938;-68
2022/08/09 10:25:52;;;;;;;;;;;;;;;27.94;29.18;99584.88;2618890;54;19942;-67
2022/08/09 15:54:00;;;;;;;;;;;;;;;31.20;19.96;99442.75;2586125;46;20092;-67
2022/08/09 15:56:49;;;;;;;;;;;;;;;31.18;19.72;99436.00;2617983;54;19962;-67
2022/08/09 15:59:20;;;;;;;;;;;;;;;31.18;19.56;99427.81;2619015;54;20336;-66
2022/08/09 16:01:51;;;;;;;;;;;;;;;31.20;19.91;99437.31;2619633;54;20042;-67
2022/08/09 16:04:20;;;;;;;;;;;;;;;31.21;18.91;99443.56;2619229;54;19951;-66
2022/08/09 16:06:51;;;;;;;;;;;;;;;31.13;19.41;99438.88;2621584;47;19955;-66
2022/08/09 16:09:25;;;;;;;;;;;;;;;31.04;19.00;99442.34;2619556;39;20346;-65
2022/08/09 16:12:14;;;;;;;;;;;;;;;30.91;19.19;99431.53;2618835;54;20434;-65
2022/08/09 16:14:43;;;;;;;;;;;;;;;31.01;19.09;99432.06;2619489;39;20327;-65
2022/08/09 16:17:14;;;;;;;;;;;;;;;31.12;19.27;99437.25;2618689;54;20030;-65
2022/08/09 16:19:45;;;;;;;;;;;;;;;31.16;19.40;99432.78;2619157;39;20386;-66
2022/08/09 16:22:33;;;;;;;;;;;;;;;31.13;19.16;99430.69;2618700;54;19950;-65
2022/08/09 16:25:07;;;;;;;;;;;;;;;31.13;19.15;99428.75;2618501;54;19981;-66
2022/08/09 16:27:36;;;;;;;;;;;;;;;31.21;18.80;99421.72;2618752;54;19939;-65
2022/08/09 16:30:10;;;;;;;;;;;;;;;31.30;18.92;99430.78;2619561;39;20353;-64
2022/08/09 16:33:12;;;;;;;;;;;;;;;31.30;19.20;99434.31;2618764;54;19950;-65
2022/08/09 16:35:46;;;;;;;;;;;;;;;31.29;19.11;99427.25;2619022;54;19953;-66
2022/08/09 16:38:28;;;;;;;;;;;;;;;31.29;19.13;99429.19;2619000;54;19954;-65
2022/08/09 16:41:00;;;;;;;;;;;;;;;31.25;18.79;99428.97;2622534;54;19959;-66
2022/08/09 16:43:32;;;;;;;;;;;;;;;31.29;18.97;99426.44;2623035;54;19950;-65
2022/08/09 16:46:08;;;;;;;;;;;;;;;31.29;19.18;99426.44;2622621;47;19957;-67
2022/08/09 16:48:39;;;;;;;;;;;;;;;31.37;18.68;99425.69;2625192;39;20325;-66
2022/08/09 16:51:27;;;;;;;;;;;;;;;31.44;18.55;99425.22;2623545;54;20029;-66
2022/08/09 16:53:57;;;;;;;;;;;;;;;31.49;18.60;99428.63;2623381;54;19947;-65
2022/08/09 16:56:49;;;;;;;;;;;;;;;31.41;18.43;99423.91;2623002;54;19946;-66
2022/08/09 16:59:18;;;;;;;;;;;;;;;31.44;18.54;99419.75;2623163;39;20377;-65
2022/08/09 17:01:48;;;;;;;;;;;;;;;31.36;18.50;99426.00;2623442;54;19993;-66
2022/08/09 17:04:21;;;;;;;;;;;;;;;31.38;18.94;99423.75;2623760;54;19946;-65
2022/08/09 17:06:57;;;;;;;;;;;;;;;31.42;18.94;99425.53;2622240;54;19950;-65
2022/08/09 17:09:46;;;;;;;;;;;;;;;31.45;18.55;99424.09;2619647;54;20456;-65
2022/08/09 17:12:18;;;;;;;;;;;;;;;31.51;18.53;99418.16;2619785;54;19990;-65
2022/08/09 17:14:48;;;;;;;;;;;;;;;31.57;18.45;99419.63;2622226;54;19939;-64
2022/08/09 17:17:26;;;;;;;;;;;;;;;31.72;18.14;99420.31;2621390;54;20067;-65
2022/08/09 17:19:56;;;;;;;;;;;;;;;31.87;18.43;99424.56;2619581;54;19946;-64
2022/08/09 17:22:45;;;;;;;;;;;;;;;31.97;18.10;99421.53;2619119;54;20430;-65
2022/08/09 17:25:20;;;;;;;;;;;;;;;31.84;18.19;99426.00;2618809;54;20035;-66
2022/08/09 17:27:54;;;;;;;;;;;;;;;31.91;18.43;99420.06;2618897;54;20447;-67
2022/08/09 17:30:24;;;;;;;;;;;;;;;31.84;18.22;99417.78;2618771;54;19947;-65
2022/08/09 17:32:55;;;;;;;;;;;;;;;31.82;18.65;99420.03;2618901;54;19939;-65
2022/08/09 17:35:33;;;;;;;;;;;;;;;31.73;18.35;99427.41;2618873;54;20022;-65
2022/08/09 17:38:03;;;;;;;;;;;;;;;31.74;18.09;99424.34;2619053;54;19939;-65
2022/08/09 17:40:53;;;;;;;;;;;;;;;31.75;18.08;99425.16;2618875;54;19955;-65
2022/08/09 17:43:25;;;;;;;;;;;;;;;31.76;18.15;99430.31;2618674;54;20477;-65
2022/08/09 17:46:04;;;;;;;;;;;;;;;31.84;18.67;99436.94;2618430;54;19939;-65
2022/08/09 17:48:35;;;;;;;;;;;;;;;31.92;18.28;99430.66;2618623;54;19939;-65
2022/08/09 17:51:08;;;;;;;;;;;;;;;31.94;18.20;99439.38;2618609;54;19943;-65
2022/08/09 17:53:47;;;;;;;;;;;;;;;31.78;18.60;99433.50;2618793;54;19954;-64
2022/08/09 17:56:21;;;;;;;;;;;;;;;31.60;18.90;99440.06;2618552;54;19969;-65
2022/08/09 17:59:00;;;;;;;;;;;;;;;31.35;18.43;99441.56;2618613;54;20074;-66
2022/08/09 18:01:32;;;;;;;;;;;;;;;30.98;18.86;99437.31;2618743;54;19938;-64
2022/08/09 18:04:21;;;;;;;;;;;;;;;30.51;19.59;99439.56;2618386;54;19947;-65
2022/08/09 18:06:51;;;;;;;;;;;;;;;30.09;20.05;99450.56;2618675;39;20337;-66
2022/08/09 18:09:24;;;;;;;;;;;;;;;29.75;20.68;99448.28;2618857;39;20395;-65
2022/08/09 18:12:10;;;;;;;;;;;;;;;29.51;20.47;99447.63;2617654;47;20058;-64
2022/08/09 18:14:49;;;;;;;;;;;;;;;29.30;21.41;99450.75;2618638;39;20346;-64
2022/08/09 18:17:23;;;;;;;;;;;;;;;29.13;21.02;99440.44;2618267;54;19947;-64
2022/08/09 18:20:13;;;;;;;;;;;;;;;28.94;21.59;99445.09;2618494;54;20038;-66
2022/08/09 18:23:02;;;;;;;;;;;;;;;28.81;21.83;99445.88;2618306;54;20021;-65
2022/08/09 18:25:34;;;;;;;;;;;;;;;28.70;22.01;99442.53;2618114;54;19939;-66
2022/08/09 18:28:21;;;;;;;;;;;;;;;28.57;21.80;99449.50;2617598;47;19954;-65
2022/08/09 18:31:13;;;;;;;;;;;;;;;28.49;22.21;99452.88;2618282;54;20022;-65
2022/08/09 18:33:52;;;;;;;;;;;;;;;28.39;22.66;99456.56;2618536;54;20430;-65
2022/08/09 18:36:22;;;;;;;;;;;;;;;28.29;22.25;99455.88;2618465;54;19954;-65
2022/08/09 18:38:59;;;;;;;;;;;;;;;28.20;22.75;99454.91;2618877;54;19954;-66
2022/08/09 18:41:31;;;;;;;;;;;;;;;28.09;22.65;99449.63;2618990;47;19966;-65
2022/08/09 18:44:03;;;;;;;;;;;;;;;28.01;23.03;99461.16;2619314;54;19938;-65
2022/08/09 18:46:44;;;;;;;;;;;;;;;27.97;23.40;99460.13;2619504;54;19947;-66
2022/08/09 18:49:34;;;;;;;;;;;;;;;27.83;23.55;99464.63;2620031;54;20054;-67
2022/08/09 18:52:15;;;;;;;;;;;;;;;27.76;23.27;99464.16;2619393;54;20070;-66
2022/08/09 18:54:53;;;;;;;;;;;;;;;27.69;23.42;99475.38;2619297;54;19950;-66
2022/08/09 18:57:22;;;;;;;;;;;;;;;27.59;23.53;99473.56;2618893;54;19954;-67
2022/08/09 19:00:12;;;;;;;;;;;;;;;27.50;23.74;99479.91;2618890;39;20334;-65
2022/08/09 19:02:51;;;;;;;;;;;;;;;27.44;23.57;99475.66;2618996;54;19997;-66
2022/08/09 19:05:23;;;;;;;;;;;;;;;27.36;23.66;99480.59;2618941;54;19947;-66
2022/08/09 19:08:12;;;;;;;;;;;;;;;27.32;23.97;99489.63;2619330;54;19947;-66